Airfield :
LOGIN :

Register | Disclaimer

   EN    FR    IT 

 










Legend :    VFR   Marginal VFR   IFR   Intensive IFR   Very Intensive IFR
Visi :
Ceiling :
>= 8 km
>= 3000ft
5 to 8 km
1000 to 3000 ft
1500m to 5 km
500 to 1000 ft
800 to 1500m
200 to 500 ft
< 800m
< 200 ft
Symbols :   Thunderstorms  Fog  Heavy snow  Heavy precipitations  Wind > 20 kt
SIGMETs :     Misc.  Thunderstorms  Icing  Turbulence  Mountain Waves  Volcanic Ashes






- Airport Elevation : 204 ft
- IATA code : AGF


LFBA - Agen

CURRENT METAR :
  • 290730Z AUTO 22001KT 9000 OVC007 07/07 Q1019 TEMPO 3000 BR

EXPIRED METARs :
  • 290700Z AUTO 01002KT 9999 SCT007/// SCT050/// OVC064/// ///TCU 07/07 Q1019 TEMPO 3000 BR BKN007
  • 290630Z AUTO 00000KT 9999 BKN009 BKN054 OVC068 06/06 Q1019 TEMPO 3000 BR
  • 290600Z AUTO 13002KT 7000 OVC008 06/06 Q1019
  • 290530Z AUTO 10002KT 0800 R29/0800N FG VV/// 06/06 Q1019
  • 290500Z AUTO 10004KT 0550 0500 R29/0600U FG VV/// ///TCU 04/04 Q1019

TAF TAF LFBA
Valid from the 29 at 06:00 until the 29 at 15:00 UTC


290500Z 2906/2915 VRB03KT 9999 BKN035
TEMPO 2906/2912 3000 BR BKN007
PROB40
TEMPO 2906/2907 0400 -DZRA FG VV///
BECMG 2910/2912 34005KT



MET'MAP, your aeronautical weather chart ! - Copyright ORBIFLY December 2007 - Disclaimer

ORBIFLY MET'MAP TEAM :

Programming & Development : Alexandra Zaïnal
Original concept : Baudouin d'Aumeries
Technical & hardware support : Manuel Goepfert
Assistance : Marc-Olivier Méhu




SOURCES & CREDITS :

   NOAA